createdAt,value
2018-09-09T00:04:32.900Z,6.60
2018-09-09T00:09:42.299Z,5.55
2018-09-09T00:14:46.701Z,6.50
2018-09-09T00:19:50.809Z,6.58
2018-09-09T00:24:54.875Z,4.58
2018-09-09T00:29:58.942Z,7.03
2018-09-09T00:35:03.034Z,6.33
2018-09-09T00:40:07.235Z,6.28
2018-09-09T00:45:11.573Z,5.53
2018-09-09T00:50:21.213Z,6.53
2018-09-09T00:55:25.354Z,7.08
2018-09-09T01:00:34.700Z,7.17
2018-09-09T01:05:39.590Z,5.97
2018-09-09T01:10:44.242Z,6.75
2018-09-09T01:15:48.359Z,6.37
2018-09-09T01:20:52.417Z,6.20
2018-09-09T01:25:56.528Z,5.25
2018-09-09T01:31:00.609Z,6.65
2018-09-09T01:36:04.736Z,5.28
2018-09-09T01:41:08.920Z,8.78
2018-09-09T01:46:12.994Z,10.00
2018-09-09T01:51:17.082Z,5.60
2018-09-09T01:56:21.363Z,6.70
2018-09-09T02:01:25.519Z,6.78
2018-09-09T02:06:29.574Z,4.45
2018-09-09T02:11:33.615Z,7.78
2018-09-09T02:16:37.996Z,6.83
2018-09-09T02:21:42.715Z,6.37
2018-09-09T02:26:46.855Z,5.50
2018-09-09T02:31:51.036Z,5.67
2018-09-09T02:36:55.091Z,6.12
2018-09-09T02:41:59.165Z,4.62
2018-09-09T02:47:03.747Z,5.55
2018-09-09T02:52:07.848Z,5.47
2018-09-09T02:57:11.905Z,5.15
2018-09-09T03:02:16.014Z,5.78
2018-09-09T03:07:20.069Z,6.78
2018-09-09T03:12:24.252Z,7.58
2018-09-09T03:17:28.376Z,7.72
2018-09-09T03:22:32.466Z,7.10
2018-09-09T03:27:36.635Z,5.85
2018-09-09T03:32:40.717Z,12.18
2018-09-09T03:37:44.793Z,6.37
2018-09-09T03:42:49.190Z,5.72
2018-09-09T03:47:53.201Z,9.00
2018-09-09T03:52:57.892Z,7.50
2018-09-09T03:58:02.418Z,7.00
2018-09-09T04:03:07.020Z,8.53
2018-09-09T04:08:11.126Z,7.47
2018-09-09T04:13:15.206Z,6.05
2018-09-09T04:18:19.239Z,6.53
2018-09-09T04:23:23.414Z,7.28
2018-09-09T04:28:27.534Z,7.28
2018-09-09T04:33:31.684Z,6.67
2018-09-09T04:38:35.790Z,8.10
2018-09-09T04:43:39.807Z,7.37
2018-09-09T04:48:43.937Z,7.62
2018-09-09T04:53:48.000Z,5.92
2018-09-09T04:58:52.458Z,6.42
2018-09-09T05:03:56.738Z,6.78
2018-09-09T05:09:00.811Z,7.60
2018-09-09T05:14:05.038Z,7.58
2018-09-09T05:19:09.188Z,8.93
2018-09-09T05:24:13.432Z,7.92
2018-09-09T05:29:17.531Z,7.25
2018-09-09T05:34:21.674Z,8.10
2018-09-09T05:39:26.035Z,7.75
2018-09-09T05:44:31.319Z,6.45
2018-09-09T05:49:36.117Z,9.48
2018-09-09T05:54:40.323Z,25.45
2018-09-09T05:59:44.461Z,9.95
2018-09-09T06:04:49.124Z,5.72
2018-09-09T06:09:53.402Z,7.28
2018-09-09T06:14:57.506Z,8.10
2018-09-09T06:20:01.826Z,6.65
2018-09-09T06:25:06.480Z,7.33
2018-09-09T06:30:10.634Z,10.13
2018-09-09T06:35:14.754Z,9.53
2018-09-09T06:40:18.791Z,8.43
2018-09-09T06:45:23.000Z,10.45
2018-09-09T06:50:27.130Z,8.03
2018-09-09T06:55:31.283Z,8.63
2018-09-09T07:00:35.428Z,9.05
2018-09-09T07:05:39.668Z,9.70
2018-09-09T07:10:43.823Z,9.93
2018-09-09T07:15:47.855Z,9.70
2018-09-09T07:20:52.086Z,10.15
2018-09-09T07:25:56.406Z,8.90
2018-09-09T07:31:00.606Z,18.82
2018-09-09T07:36:04.750Z,9.83
2018-09-09T07:41:09.794Z,8.65
2018-09-09T07:46:13.935Z,9.33
2018-09-09T07:51:24.371Z,9.68
2018-09-09T07:56:28.609Z,8.50
2018-09-09T08:01:32.713Z,10.35
2018-09-09T08:06:36.854Z,9.85
2018-09-09T08:11:42.118Z,10.10
2018-09-09T08:16:46.487Z,8.05
2018-09-09T08:21:50.680Z,9.83
2018-09-09T08:26:54.813Z,8.88
2018-09-09T08:31:59.002Z,7.25
2018-09-09T08:37:03.265Z,8.43
2018-09-09T08:42:08.317Z,9.08
2018-09-09T08:47:19.603Z,9.08
2018-09-09T08:52:24.026Z,7.67
2018-09-09T08:57:28.305Z,9.73
2018-09-09T09:02:32.672Z,9.53
2018-09-09T09:07:37.132Z,10.90
2018-09-09T09:12:41.370Z,11.10
2018-09-09T09:17:45.571Z,9.88
2018-09-09T09:22:49.918Z,10.18
2018-09-09T09:27:57.728Z,9.35
2018-09-09T09:33:06.911Z,9.88
2018-09-09T09:38:12.417Z,10.65
2018-09-09T09:43:19.712Z,10.58
2018-09-09T09:48:24.906Z,13.08
2018-09-09T09:53:29.187Z,13.48
2018-09-09T09:58:33.413Z,12.07
2018-09-09T10:03:38.173Z,10.58
2018-09-09T10:08:42.388Z,10.45
2018-09-09T10:13:46.635Z,10.13
2018-09-09T10:18:50.842Z,11.43
2018-09-09T10:23:56.875Z,9.95
2018-09-09T10:29:02.030Z,9.73
2018-09-09T10:34:06.679Z,10.72
2018-09-09T10:39:12.302Z,8.65
2018-09-09T10:44:16.424Z,11.03
2018-09-09T10:49:20.650Z,6.58
2018-09-09T10:54:24.791Z,8.78
2018-09-09T10:59:29.715Z,7.53
2018-09-09T11:04:33.945Z,7.97
2018-09-09T11:09:38.591Z,8.75
2018-09-09T11:14:42.804Z,6.85
2018-09-09T11:19:46.994Z,7.25
2018-09-09T11:24:51.612Z,7.03
2018-09-09T11:29:56.402Z,5.37
2018-09-09T11:35:00.932Z,5.97
2018-09-09T11:40:05.352Z,4.30
2018-09-09T11:45:09.817Z,4.95
2018-09-09T11:50:14.548Z,3.85
2018-09-09T11:55:18.736Z,4.62
2018-09-09T12:00:22.900Z,3.45
2018-09-09T12:05:27.141Z,4.40
2018-09-09T12:10:31.460Z,4.08
2018-09-09T12:15:36.161Z,3.85
2018-09-09T12:20:41.585Z,5.78
2018-09-09T12:25:45.780Z,3.95
2018-09-09T12:30:50.734Z,3.00
2018-09-09T12:35:55.121Z,3.72
2018-09-09T12:40:59.791Z,3.50
2018-09-09T12:46:13.333Z,3.52
2018-09-09T12:51:17.897Z,5.58
2018-09-09T12:56:22.028Z,4.47
2018-09-09T13:01:26.456Z,4.78
2018-09-09T13:06:30.591Z,3.15
2018-09-09T13:11:34.724Z,3.30
2018-09-09T13:16:38.993Z,5.00
2018-09-09T13:21:43.244Z,3.22
2018-09-09T13:26:47.510Z,3.00
2018-09-09T13:31:51.943Z,3.83
2018-09-09T13:36:56.125Z,3.75
2018-09-09T13:42:00.874Z,3.27
2018-09-09T13:47:05.065Z,4.92
2018-09-09T13:52:09.305Z,3.62
2018-09-09T13:57:13.528Z,5.15
2018-09-09T14:02:17.706Z,3.72
2018-09-09T14:07:23.210Z,2.85
2018-09-09T14:12:27.945Z,3.45
2018-09-09T14:17:36.361Z,3.67
2018-09-09T14:22:44.283Z,3.10
2018-09-09T14:27:49.561Z,3.83
2018-09-09T14:32:53.672Z,2.90
2018-09-09T14:37:57.989Z,3.25
2018-09-09T14:43:02.159Z,2.70
2018-09-09T14:48:06.519Z,3.30
2018-09-09T14:53:11.015Z,3.00
2018-09-09T14:58:15.246Z,3.47
2018-09-09T15:03:19.523Z,3.12
2018-09-09T15:08:23.707Z,3.02
2018-09-09T15:13:31.359Z,3.50
2018-09-09T15:18:35.724Z,2.95
2018-09-09T15:23:40.739Z,2.80
2018-09-09T15:28:44.920Z,3.70
2018-09-09T15:33:49.449Z,2.55
2018-09-09T15:38:53.511Z,4.62
2018-09-09T15:43:58.611Z,4.10
2018-09-09T15:49:02.747Z,2.62
2018-09-09T15:54:10.025Z,3.12
2018-09-09T15:59:14.557Z,3.10
2018-09-09T16:04:18.828Z,3.37
2018-09-09T16:09:23.014Z,4.03
2018-09-09T16:14:27.489Z,3.42
2018-09-09T16:19:31.665Z,4.17
2018-09-09T16:24:35.845Z,3.27
2018-09-09T16:29:40.149Z,3.12
2018-09-09T16:34:45.359Z,4.28
2018-09-09T16:39:49.602Z,3.72
2018-09-09T16:44:54.493Z,5.47
2018-09-09T16:49:58.607Z,4.50
2018-09-09T16:55:03.154Z,3.62
2018-09-09T17:00:07.592Z,6.05
2018-09-09T17:05:12.262Z,5.78
2018-09-09T17:10:16.766Z,5.12
2018-09-09T17:15:20.990Z,4.28
2018-09-09T17:20:25.176Z,4.22
2018-09-09T17:25:30.889Z,4.78
2018-09-09T17:30:35.773Z,5.72
2018-09-09T17:35:40.653Z,5.10
2018-09-09T17:40:44.816Z,4.47
2018-09-09T17:45:49.099Z,4.12
2018-09-09T17:50:53.231Z,4.05
2018-09-09T17:55:58.172Z,9.33
2018-09-09T18:01:03.149Z,4.95
2018-09-09T18:06:07.269Z,6.67
2018-09-09T18:11:12.135Z,4.03
2018-09-09T18:16:16.194Z,4.05
2018-09-09T18:21:20.338Z,4.92
2018-09-09T18:26:24.469Z,9.55
2018-09-09T18:31:28.692Z,9.10
2018-09-09T18:36:33.042Z,4.45
2018-09-09T18:41:38.304Z,4.72
2018-09-09T18:46:42.523Z,4.62
2018-09-09T18:51:46.734Z,4.00
2018-09-09T18:56:51.059Z,4.05
2018-09-09T19:01:55.631Z,4.45
2018-09-09T19:06:59.865Z,7.10
2018-09-09T19:12:04.112Z,4.87
2018-09-09T19:17:08.406Z,4.72
2018-09-09T19:22:13.557Z,5.50
2018-09-09T19:27:17.848Z,6.17
2018-09-09T19:32:22.764Z,7.85
2018-09-09T19:37:27.142Z,6.47
2018-09-09T19:42:35.211Z,4.85
2018-09-09T19:47:39.526Z,4.67
2018-09-09T19:52:43.765Z,5.62
2018-09-09T19:57:48.016Z,7.37
2018-09-09T20:02:52.507Z,7.78
2018-09-09T20:07:57.569Z,5.08
2018-09-09T20:13:02.388Z,5.60
2018-09-09T20:18:07.905Z,6.03
2018-09-09T20:23:12.303Z,3.95
2018-09-09T20:28:16.612Z,8.13
2018-09-09T20:33:21.026Z,5.17
2018-09-09T20:38:25.147Z,6.72
2018-09-09T20:43:29.414Z,5.65
2018-09-09T20:48:33.572Z,6.03
2018-09-09T20:53:37.905Z,6.62
2018-09-09T20:58:42.009Z,5.00
2018-09-09T21:03:46.482Z,5.20
2018-09-09T21:08:50.683Z,4.10
2018-09-09T21:13:55.113Z,5.17
2018-09-09T21:18:59.284Z,10.58
2018-09-09T21:24:03.380Z,5.90
2018-09-09T21:29:07.851Z,6.75
2018-09-09T21:34:12.400Z,7.45
2018-09-09T21:39:16.641Z,5.47
2018-09-09T21:44:20.833Z,5.55
2018-09-09T21:49:31.032Z,5.08
2018-09-09T21:54:35.842Z,6.35
2018-09-09T21:59:42.132Z,7.90
2018-09-09T22:04:46.336Z,4.83
2018-09-09T22:09:50.846Z,5.12
2018-09-09T22:14:55.839Z,5.72
2018-09-09T22:20:00.133Z,5.90
2018-09-09T22:25:05.143Z,6.05
2018-09-09T22:30:09.778Z,7.47
2018-09-09T22:35:13.931Z,6.72
2018-09-09T22:40:18.089Z,5.62
2018-09-09T22:45:22.349Z,4.92
2018-09-09T22:50:26.486Z,7.17
2018-09-09T22:55:30.633Z,7.53
2018-09-09T23:00:34.806Z,5.65
2018-09-09T23:05:45.722Z,7.25
2018-09-09T23:10:50.548Z,5.12
2018-09-09T23:15:56.170Z,6.55
2018-09-09T23:21:01.408Z,4.50
2018-09-09T23:26:05.530Z,8.08
2018-09-09T23:31:09.637Z,8.75
2018-09-09T23:36:14.319Z,6.92
2018-09-09T23:41:19.604Z,7.33
2018-09-09T23:46:23.809Z,6.12
2018-09-09T23:51:27.966Z,6.25
2018-09-09T23:56:32.130Z,7.25
